Aviation Digital Data Service (ADDS)

Output produced by METARs form (1810 UTC 14 August 2018)
found at http://www.aviationweather.gov/adds/metars/
 
DGAA 141700Z 21015KT CAVOK 26/22 Q1012 NOSIG
TAF DGAA 141700Z 1418/1524 20015KT 9999 FEW015 
     BECMG 1422/1424 26010KT CAVOK 
     BECMG 1505/1507 BKN012 
     BECMG 1510/1512 19015KT BKN025
       
DGSI 141600Z 23005KT 9999 SCT016 27/22 Q1015 NOSIG
TAF DGSI 140500Z 1406/1506 23008KT 9999 BKN010 
     PROB 1406/1409 5000 BR 
     BECMG 1412/1414 SCT016 
     PROB30 
     TEMPO 1416/1420 6000 -RA BKN008
       
DGLE 141700Z 36002KT 9999 FEW015 29/22 Q1012 NOSIG